createdAt,value
2023-04-21T00:01:55.407Z,13.45
2023-04-21T00:04:27.994Z,13.22
2023-04-21T00:06:56.848Z,13.27
2023-04-21T00:09:28.377Z,13.32
2023-04-21T00:11:57.512Z,13.10
2023-04-21T00:14:27.091Z,13.36
2023-04-21T00:16:55.897Z,13.48
2023-04-21T00:19:26.638Z,13.23
2023-04-21T00:21:59.020Z,13.34
2023-04-21T00:24:28.270Z,13.32
2023-04-21T00:26:59.929Z,13.27
2023-04-21T00:29:29.952Z,13.22
2023-04-21T00:31:59.833Z,13.29
2023-04-21T00:34:29.992Z,13.05
2023-04-21T00:36:59.226Z,12.91
2023-04-21T00:39:28.468Z,13.04
2023-04-21T00:41:57.402Z,12.90
2023-04-21T00:44:26.163Z,13.02
2023-04-21T00:46:54.721Z,12.98
2023-04-21T00:49:25.671Z,13.22
2023-04-21T00:51:58.256Z,13.22
2023-04-21T00:54:30.974Z,12.83
2023-04-21T00:57:01.104Z,13.05
2023-04-21T00:59:32.933Z,13.27
2023-04-21T01:02:04.829Z,13.09
2023-04-21T01:04:39.801Z,13.21
2023-04-21T01:07:10.496Z,13.24
2023-04-21T01:09:40.009Z,13.30
2023-04-21T01:12:10.579Z,13.28
2023-04-21T01:14:41.605Z,13.33
2023-04-21T01:17:12.624Z,13.12
2023-04-21T01:19:44.371Z,13.26
2023-04-21T01:22:16.879Z,13.14
2023-04-21T01:24:49.482Z,13.03
2023-04-21T01:27:21.406Z,13.14
2023-04-21T01:29:54.265Z,13.10
2023-04-21T01:32:27.324Z,13.14
2023-04-21T01:34:58.302Z,13.24
2023-04-21T01:37:32.643Z,13.12
2023-04-21T01:40:06.959Z,13.20
2023-04-21T01:42:41.140Z,13.27
2023-04-21T01:45:11.821Z,13.23
2023-04-21T01:47:41.904Z,13.37
2023-04-21T01:50:12.388Z,13.71
2023-04-21T01:52:45.226Z,13.67
2023-04-21T01:55:16.322Z,13.70
2023-04-21T01:57:45.030Z,13.63
2023-04-21T02:00:18.224Z,13.57
2023-04-21T02:02:47.947Z,13.68
2023-04-21T02:05:19.119Z,13.56
2023-04-21T02:07:52.413Z,13.67
2023-04-21T02:10:24.140Z,13.72
2023-04-21T02:12:54.387Z,13.81
2023-04-21T02:15:27.093Z,13.76
2023-04-21T02:17:59.175Z,13.68
2023-04-21T02:20:29.871Z,13.74
2023-04-21T02:23:03.954Z,13.81
2023-04-21T02:25:33.353Z,13.70
2023-04-21T02:28:04.649Z,13.74
2023-04-21T02:30:36.397Z,13.75
2023-04-21T02:33:07.732Z,13.74
2023-04-21T02:35:40.385Z,13.85
2023-04-21T02:38:11.331Z,13.87
2023-04-21T02:40:42.736Z,13.93
2023-04-21T02:43:13.303Z,13.85
2023-04-21T02:45:57.186Z,13.66
2023-04-21T02:48:30.534Z,13.58
2023-04-21T02:51:01.403Z,13.23
2023-04-21T02:53:35.506Z,13.65
2023-04-21T02:59:07.720Z,13.52
2023-04-21T03:01:38.545Z,13.48
2023-04-21T03:04:07.809Z,13.29
2023-04-21T03:06:38.886Z,13.49
2023-04-21T03:09:09.641Z,13.26
2023-04-21T03:11:40.103Z,13.42
2023-04-21T03:14:10.186Z,13.54
2023-04-21T03:16:38.981Z,13.07
2023-04-21T03:19:07.640Z,13.16
2023-04-21T03:21:41.196Z,12.61
2023-04-21T03:24:15.411Z,13.02
2023-04-21T03:26:46.587Z,12.68
2023-04-21T03:29:18.256Z,12.86
2023-04-21T03:31:48.058Z,13.36
2023-04-21T03:34:20.108Z,13.38
2023-04-21T03:36:49.645Z,13.57
2023-04-21T03:39:21.078Z,13.42
2023-04-21T03:41:51.605Z,13.67
2023-04-21T03:44:22.550Z,13.77
2023-04-21T03:46:55.329Z,13.76
2023-04-21T03:49:26.270Z,13.69
2023-04-21T03:52:03.517Z,13.75
2023-04-21T03:54:37.621Z,13.48
2023-04-21T03:57:07.113Z,13.70
2023-04-21T03:59:36.588Z,13.71
2023-04-21T04:02:06.640Z,13.79
2023-04-21T04:04:39.273Z,13.65
2023-04-21T04:07:10.765Z,13.83
2023-04-21T04:09:43.727Z,13.51
2023-04-21T04:12:12.374Z,13.33
2023-04-21T04:14:41.454Z,13.33
2023-04-21T04:17:13.109Z,13.64
2023-04-21T04:19:43.022Z,13.66
2023-04-21T04:22:13.423Z,13.83
2023-04-21T04:24:45.150Z,13.83
2023-04-21T04:27:17.871Z,13.88
2023-04-21T04:29:49.717Z,13.84
2023-04-21T04:32:39.489Z,13.70
2023-04-21T04:35:13.418Z,13.65
2023-04-21T04:37:48.710Z,13.79
2023-04-21T04:40:21.534Z,13.63
2023-04-21T04:42:53.170Z,13.68
2023-04-21T04:45:23.907Z,13.75
2023-04-21T04:47:53.186Z,13.68
2023-04-21T04:50:24.755Z,13.70
2023-04-21T04:52:54.786Z,13.81
2023-04-21T04:55:27.858Z,13.59
2023-04-21T04:57:58.698Z,13.73
2023-04-21T05:00:42.915Z,13.54
2023-04-21T05:03:12.345Z,13.76
2023-04-21T05:05:42.747Z,13.74
2023-04-21T05:08:11.777Z,13.55
2023-04-21T05:10:46.908Z,13.73
2023-04-21T05:13:18.382Z,13.65
2023-04-21T05:15:48.428Z,13.57
2023-04-21T05:18:17.811Z,13.86
2023-04-21T05:20:47.545Z,13.87
2023-04-21T05:23:16.201Z,13.85
2023-04-21T05:25:49.454Z,13.63
2023-04-21T05:28:26.272Z,13.60
2023-04-21T05:30:55.649Z,13.21
2023-04-21T05:33:27.177Z,13.36
2023-04-21T05:35:58.213Z,13.67
2023-04-21T05:38:28.008Z,13.76
2023-04-21T05:41:02.798Z,13.71
2023-04-21T05:43:35.796Z,13.30
2023-04-21T05:46:11.671Z,13.65
2023-04-21T05:48:42.240Z,13.88
2023-04-21T05:51:12.828Z,13.84
2023-04-21T05:53:48.476Z,13.55
2023-04-21T05:56:18.908Z,13.32
2023-04-21T05:58:48.684Z,13.42
2023-04-21T06:01:19.217Z,13.44
2023-04-21T06:03:50.695Z,13.93
2023-04-21T06:06:22.317Z,13.37
2023-04-21T06:08:53.333Z,13.59
2023-04-21T06:11:26.921Z,13.47
2023-04-21T06:14:05.386Z,13.07
2023-04-21T06:19:24.202Z,14.03
2023-04-21T06:22:07.435Z,13.58
2023-04-21T06:24:37.219Z,14.09
2023-04-21T06:27:14.391Z,13.69
2023-04-21T06:29:47.982Z,13.62
2023-04-21T06:32:20.335Z,13.53
2023-04-21T06:34:49.766Z,13.87
2023-04-21T06:37:19.486Z,14.01
2023-04-21T06:42:37.597Z,14.02
2023-04-21T06:45:24.692Z,13.89
2023-04-21T06:47:58.184Z,13.66
2023-04-21T06:50:29.858Z,13.87
2023-04-21T06:52:58.792Z,14.02
2023-04-21T06:55:29.215Z,14.23
2023-04-21T06:58:00.480Z,14.26
2023-04-21T07:00:30.846Z,13.93
2023-04-21T07:02:59.763Z,13.78
2023-04-21T07:05:36.079Z,14.17
2023-04-21T07:08:35.003Z,14.26
2023-04-21T07:11:10.528Z,14.68
2023-04-21T07:13:44.640Z,14.69
2023-04-21T07:16:24.747Z,14.19
2023-04-21T07:18:56.956Z,14.27
2023-04-21T07:21:41.572Z,14.28
2023-04-21T07:30:31.657Z,14.34
2023-04-21T07:33:02.743Z,14.82
2023-04-21T07:35:31.755Z,14.88
2023-04-21T07:38:01.380Z,14.70
2023-04-21T07:40:35.491Z,14.40
2023-04-21T07:43:05.731Z,14.79
2023-04-21T07:45:37.224Z,14.66
2023-04-21T07:48:11.118Z,15.35
2023-04-21T07:50:43.324Z,15.37
2023-04-21T07:53:14.472Z,15.70
2023-04-21T07:55:50.760Z,15.69
2023-04-21T07:58:24.063Z,15.47
2023-04-21T08:00:59.211Z,15.73
2023-04-21T08:03:52.775Z,15.76
2023-04-21T08:06:25.132Z,16.17
2023-04-21T08:08:56.820Z,16.39
2023-04-21T08:11:26.251Z,16.17
2023-04-21T08:13:55.783Z,15.57
2023-04-21T08:16:26.925Z,15.21
2023-04-21T08:18:57.533Z,15.89
2023-04-21T08:21:28.903Z,16.13
2023-04-21T08:24:00.558Z,15.84
2023-04-21T08:26:30.847Z,15.33
2023-04-21T08:29:00.709Z,14.78
2023-04-21T08:31:35.691Z,15.58
2023-04-21T08:34:06.664Z,15.56
2023-04-21T08:36:38.813Z,16.02
2023-04-21T08:39:07.540Z,15.88
2023-04-21T08:41:36.497Z,15.03
2023-04-21T08:44:06.399Z,15.17
2023-04-21T08:46:41.895Z,15.45
2023-04-21T08:49:13.615Z,15.52
2023-04-21T08:51:45.982Z,16.03
2023-04-21T08:54:30.224Z,15.91
2023-04-21T08:57:11.724Z,15.70
2023-04-21T08:59:45.730Z,15.38
2023-04-21T09:02:19.489Z,15.93
2023-04-21T09:04:52.401Z,16.31
2023-04-21T09:07:37.230Z,15.61
2023-04-21T09:10:11.219Z,16.28
2023-04-21T09:12:56.471Z,15.65
2023-04-21T09:15:29.943Z,15.43
2023-04-21T09:18:04.586Z,15.44
2023-04-21T09:20:34.285Z,15.51
2023-04-21T09:23:12.300Z,15.42
2023-04-21T09:25:45.188Z,15.04
2023-04-21T09:28:16.576Z,15.62
2023-04-21T09:30:47.035Z,16.26
2023-04-21T09:33:29.421Z,15.91
2023-04-21T09:36:04.719Z,15.29
2023-04-21T09:38:35.989Z,15.63
2023-04-21T09:41:05.854Z,16.14
2023-04-21T09:43:38.663Z,16.20
2023-04-21T09:46:12.297Z,15.83
2023-04-21T09:48:46.201Z,16.67
2023-04-21T09:53:55.724Z,17.19
2023-04-21T09:56:27.778Z,16.68
2023-04-21T09:59:03.319Z,16.73
2023-04-21T10:01:36.619Z,17.28
2023-04-21T10:04:07.820Z,16.94
2023-04-21T10:06:42.154Z,17.10
2023-04-21T10:09:19.121Z,16.28
2023-04-21T10:11:48.460Z,16.77
2023-04-21T10:14:23.759Z,17.18
2023-04-21T10:17:25.247Z,17.96
2023-04-21T10:20:00.300Z,18.10
2023-04-21T10:22:30.531Z,17.01
2023-04-21T10:25:03.784Z,17.35
2023-04-21T10:27:37.825Z,17.36
2023-04-21T10:30:26.943Z,17.16
2023-04-21T10:33:06.096Z,16.47
2023-04-21T10:36:07.597Z,16.72
2023-04-21T10:38:43.641Z,16.72
2023-04-21T10:41:29.379Z,16.90
2023-04-21T10:44:02.574Z,17.97
2023-04-21T10:46:42.864Z,17.64
2023-04-21T10:49:16.894Z,17.43
2023-04-21T10:52:12.963Z,17.81
2023-04-21T10:54:46.262Z,17.73
2023-04-21T10:57:18.591Z,17.82
2023-04-21T10:59:50.249Z,18.07
2023-04-21T11:02:24.531Z,17.42
2023-04-21T11:04:57.000Z,17.98
2023-04-21T11:07:31.372Z,18.75
2023-04-21T11:10:03.046Z,18.76
2023-04-21T11:12:43.920Z,18.15
2023-04-21T11:15:16.392Z,17.73
2023-04-21T11:17:48.880Z,17.82
2023-04-21T11:20:18.063Z,18.52
2023-04-21T11:22:53.585Z,18.85
2023-04-21T11:25:23.916Z,18.82
2023-04-21T11:28:00.270Z,18.43
2023-04-21T11:30:40.495Z,19.03
2023-04-21T11:33:09.680Z,18.66
2023-04-21T11:35:47.823Z,19.02
2023-04-21T11:38:19.191Z,18.53
2023-04-21T11:40:50.098Z,19.12
2023-04-21T11:43:24.270Z,19.48
2023-04-21T11:45:54.565Z,19.35
2023-04-21T11:48:36.614Z,19.42
2023-04-21T11:51:06.054Z,19.45
2023-04-21T11:53:41.406Z,19.56
2023-04-21T11:56:13.290Z,19.65
2023-04-21T11:58:49.144Z,19.17
2023-04-21T12:01:27.838Z,19.70
2023-04-21T12:03:58.055Z,20.60
2023-04-21T12:06:29.301Z,20.42
2023-04-21T12:09:05.153Z,19.14
2023-04-21T12:11:36.325Z,19.93
2023-04-21T12:14:06.981Z,19.72
2023-04-21T12:16:40.433Z,20.40
2023-04-21T12:19:09.441Z,20.53
2023-04-21T12:21:40.452Z,20.77
2023-04-21T12:24:13.968Z,20.80
2023-04-21T12:26:53.395Z,20.76
2023-04-21T12:29:24.712Z,20.24
2023-04-21T12:31:55.366Z,20.67
2023-04-21T12:34:24.839Z,21.00
2023-04-21T12:36:58.884Z,20.46
2023-04-21T12:39:29.990Z,20.09
2023-04-21T12:42:02.589Z,20.40
2023-04-21T12:44:31.993Z,20.05
2023-04-21T12:47:08.308Z,19.86
2023-04-21T12:49:39.534Z,21.41
2023-04-21T12:52:10.047Z,22.01
2023-04-21T12:54:45.405Z,20.88
2023-04-21T12:57:25.769Z,20.69
2023-04-21T12:59:56.254Z,21.16
2023-04-21T13:02:26.638Z,21.76
2023-04-21T13:04:59.796Z,21.75
2023-04-21T13:07:42.598Z,21.65
2023-04-21T13:10:14.160Z,21.27
2023-04-21T13:12:44.473Z,20.99
2023-04-21T13:15:16.847Z,21.61
2023-04-21T13:17:46.759Z,21.33
2023-04-21T13:20:19.450Z,21.94
2023-04-21T13:22:52.619Z,21.92
2023-04-21T13:25:37.008Z,22.04
2023-04-21T13:28:07.632Z,20.30
2023-04-21T13:30:49.341Z,20.88
2023-04-21T13:33:21.453Z,21.65
2023-04-21T13:35:50.897Z,21.54
2023-04-21T13:38:28.509Z,21.65
2023-04-21T13:41:00.878Z,21.24
2023-04-21T13:43:32.071Z,21.60
2023-04-21T13:46:00.639Z,22.02
2023-04-21T13:48:30.045Z,22.74
2023-04-21T13:51:00.161Z,22.85
2023-04-21T13:53:34.442Z,22.66
2023-04-21T13:56:05.426Z,23.16
2023-04-21T13:58:36.679Z,24.29
2023-04-21T14:01:10.775Z,23.84
2023-04-21T14:03:50.461Z,23.76
2023-04-21T14:06:21.271Z,24.15
2023-04-21T14:08:52.650Z,25.01
2023-04-21T14:11:28.678Z,24.62
2023-04-21T14:14:09.957Z,25.26
2023-04-21T14:16:46.935Z,24.11
2023-04-21T14:19:17.602Z,24.79
2023-04-21T14:21:50.108Z,25.27
2023-04-21T14:24:21.832Z,24.34
2023-04-21T14:26:53.214Z,24.33
2023-04-21T14:29:24.626Z,24.41
2023-04-21T14:31:59.811Z,24.58
2023-04-21T14:34:29.129Z,25.57
2023-04-21T14:37:01.235Z,25.08
2023-04-21T14:39:33.032Z,25.65
2023-04-21T14:42:06.661Z,24.92
2023-04-21T14:44:35.859Z,25.77
2023-04-21T14:47:09.755Z,25.73
2023-04-21T14:49:40.972Z,24.98
2023-04-21T14:52:15.772Z,26.08
2023-04-21T14:54:44.374Z,26.09
2023-04-21T14:57:19.597Z,25.75
2023-04-21T14:59:52.957Z,26.16
2023-04-21T15:02:29.171Z,25.94
2023-04-21T15:04:59.922Z,26.42
2023-04-21T15:07:33.276Z,26.46
2023-04-21T15:10:03.985Z,24.47
2023-04-21T15:12:37.769Z,26.07
2023-04-21T15:15:08.305Z,25.28
2023-04-21T15:17:40.706Z,24.27
2023-04-21T15:20:12.454Z,24.51
2023-04-21T15:22:43.867Z,23.65
2023-04-21T15:25:13.515Z,23.17
2023-04-21T15:27:43.644Z,23.33
2023-04-21T15:30:14.677Z,23.50
2023-04-21T15:33:01.174Z,24.08
2023-04-21T15:35:34.900Z,22.80
2023-04-21T15:38:06.256Z,22.88
2023-04-21T15:40:59.615Z,23.13
2023-04-21T15:43:30.950Z,22.83
2023-04-21T15:46:01.338Z,22.63
2023-04-21T15:48:34.729Z,22.53
2023-04-21T15:51:05.060Z,22.63
2023-04-21T15:53:35.823Z,21.89
2023-04-21T15:56:05.713Z,21.84
2023-04-21T15:58:44.773Z,22.33
2023-04-21T16:01:14.945Z,22.14
2023-04-21T16:03:44.218Z,22.58
2023-04-21T16:06:13.760Z,22.07
2023-04-21T16:08:45.206Z,22.09
2023-04-21T16:11:14.071Z,21.90
2023-04-21T16:13:46.819Z,21.82
2023-04-21T16:16:17.963Z,22.05
2023-04-21T16:18:48.199Z,21.69
2023-04-21T16:21:17.053Z,22.31
2023-04-21T16:23:47.985Z,21.94
2023-04-21T16:26:20.186Z,21.70
2023-04-21T16:28:56.231Z,21.84
2023-04-21T16:31:26.969Z,21.63
2023-04-21T16:33:59.830Z,22.14
2023-04-21T16:36:32.884Z,22.20
2023-04-21T16:39:06.882Z,21.93
2023-04-21T16:41:36.497Z,22.03
2023-04-21T16:44:11.512Z,22.44
2023-04-21T16:46:45.147Z,22.22
2023-04-21T16:49:20.133Z,22.22
2023-04-21T16:51:52.218Z,21.80
2023-04-21T16:54:22.666Z,22.46
2023-04-21T16:56:52.061Z,22.46
2023-04-21T16:59:24.042Z,22.49
2023-04-21T17:01:55.808Z,22.36
2023-04-21T17:04:30.130Z,22.36
2023-04-21T17:07:01.200Z,22.27
2023-04-21T17:09:31.746Z,21.92
2023-04-21T17:12:01.401Z,22.03
2023-04-21T17:14:33.011Z,22.20
2023-04-21T17:17:02.058Z,21.30
2023-04-21T17:19:31.026Z,21.35
2023-04-21T17:22:03.598Z,21.67
2023-04-21T17:24:51.547Z,21.74
2023-04-21T17:27:23.995Z,21.43
2023-04-21T17:29:54.405Z,21.81
2023-04-21T17:32:25.187Z,21.56
2023-04-21T17:34:55.062Z,21.65
2023-04-21T17:37:31.658Z,21.56
2023-04-21T17:40:03.319Z,21.64
2023-04-21T17:42:33.923Z,21.44
2023-04-21T17:45:07.856Z,21.10
2023-04-21T17:47:39.922Z,21.39
2023-04-21T17:50:14.227Z,21.33
2023-04-21T17:52:43.492Z,21.24
2023-04-21T17:55:16.600Z,21.03
2023-04-21T17:57:49.047Z,21.03
2023-04-21T18:00:24.199Z,20.96
2023-04-21T18:02:53.557Z,20.79
2023-04-21T18:05:23.432Z,20.81
2023-04-21T18:07:54.682Z,20.79
2023-04-21T18:10:43.411Z,20.73
2023-04-21T18:13:12.531Z,20.74
2023-04-21T18:15:44.349Z,20.64
2023-04-21T18:18:14.546Z,20.73
2023-04-21T18:20:46.076Z,20.58
2023-04-21T18:23:17.277Z,20.62
2023-04-21T18:25:46.328Z,20.61
2023-04-21T18:28:18.137Z,20.60
2023-04-21T18:30:50.695Z,20.59
2023-04-21T18:33:33.268Z,20.47
2023-04-21T18:36:32.906Z,20.07
2023-04-21T18:39:18.874Z,19.90
2023-04-21T18:41:57.284Z,19.36
2023-04-21T18:44:34.165Z,19.17
2023-04-21T18:50:26.484Z,17.20
2023-04-21T18:53:22.206Z,17.34
2023-04-21T18:56:27.793Z,17.84
2023-04-21T18:58:59.600Z,17.94
2023-04-21T19:01:38.825Z,17.54
2023-04-21T19:04:15.569Z,17.16
2023-04-21T19:07:04.857Z,16.63
2023-04-21T19:09:56.816Z,16.39
2023-04-21T19:12:46.714Z,16.84
2023-04-21T19:15:45.922Z,16.63
2023-04-21T19:18:31.273Z,16.74
2023-04-21T19:21:19.016Z,17.20
2023-04-21T19:23:59.280Z,17.21
2023-04-21T19:26:51.506Z,17.19
2023-04-21T19:29:38.220Z,17.10
2023-04-21T19:32:10.545Z,16.91
2023-04-21T19:34:50.442Z,16.94
2023-04-21T19:37:39.736Z,16.90
2023-04-21T19:40:19.449Z,17.00
2023-04-21T19:43:18.247Z,16.91
2023-04-21T19:45:58.910Z,16.71
2023-04-21T19:48:58.174Z,16.69
2023-04-21T19:51:49.500Z,16.55
2023-04-21T19:58:28.714Z,16.34
2023-04-21T20:01:17.197Z,16.41
2023-04-21T20:06:52.641Z,16.37
2023-04-21T20:09:29.163Z,16.32
2023-04-21T20:12:02.637Z,16.31
2023-04-21T20:14:54.500Z,16.22
2023-04-21T20:17:44.874Z,16.23
2023-04-21T20:20:27.848Z,16.31
2023-04-21T20:23:12.658Z,16.30
2023-04-21T20:25:59.351Z,16.21
2023-04-21T20:29:01.050Z,15.94
2023-04-21T20:31:51.168Z,15.75
2023-04-21T20:34:45.117Z,15.98
2023-04-21T20:37:25.329Z,15.33
2023-04-21T20:40:10.576Z,15.39
2023-04-21T20:45:36.919Z,16.09
2023-04-21T20:48:08.381Z,15.82
2023-04-21T20:50:37.960Z,15.75
2023-04-21T20:53:14.565Z,15.99
2023-04-21T20:55:44.484Z,16.02
2023-04-21T21:00:59.417Z,15.99
2023-04-21T21:03:32.230Z,15.75
2023-04-21T21:06:04.802Z,15.80
2023-04-21T21:08:36.256Z,15.93
2023-04-21T21:11:06.581Z,15.74
2023-04-21T21:13:47.114Z,15.83
2023-04-21T21:16:18.674Z,15.75
2023-04-21T21:18:52.276Z,15.52
2023-04-21T21:21:24.780Z,15.17
2023-04-21T21:23:55.302Z,15.53
2023-04-21T21:26:25.967Z,14.70
2023-04-21T21:28:56.971Z,14.69
2023-04-21T21:31:27.924Z,14.22
2023-04-21T21:34:00.247Z,13.71
2023-04-21T21:36:30.513Z,13.99
2023-04-21T21:39:06.896Z,13.51
2023-04-21T21:41:38.864Z,14.43
2023-04-21T21:44:10.985Z,14.21
2023-04-21T21:46:45.383Z,14.05
2023-04-21T21:49:18.431Z,13.91
2023-04-21T21:51:48.606Z,13.76
2023-04-21T21:54:18.535Z,14.47
2023-04-21T21:56:48.356Z,14.15
2023-04-21T21:59:18.159Z,14.38
2023-04-21T22:01:57.113Z,14.74
2023-04-21T22:04:27.355Z,14.30
2023-04-21T22:06:57.048Z,14.32
2023-04-21T22:09:27.431Z,14.31
2023-04-21T22:12:02.259Z,14.88
2023-04-21T22:14:31.908Z,14.58
2023-04-21T22:17:07.953Z,14.99
2023-04-21T22:19:37.098Z,14.97
2023-04-21T22:22:08.807Z,15.20
2023-04-21T22:24:38.615Z,15.32
2023-04-21T22:27:09.579Z,15.35
2023-04-21T22:29:43.265Z,15.44
2023-04-21T22:32:16.156Z,15.40
2023-04-21T22:34:46.660Z,15.38
2023-04-21T22:37:18.205Z,15.42
2023-04-21T22:39:48.827Z,15.41
2023-04-21T22:42:20.400Z,15.42
2023-04-21T22:44:49.998Z,15.22
2023-04-21T22:47:34.280Z,15.30
2023-04-21T22:50:07.245Z,15.28
2023-04-21T22:52:38.917Z,15.25
2023-04-21T22:55:10.838Z,15.11
2023-04-21T22:57:40.439Z,15.03
2023-04-21T23:00:16.643Z,14.99
2023-04-21T23:02:48.502Z,14.78
2023-04-21T23:05:19.723Z,14.85
2023-04-21T23:07:53.522Z,14.79
2023-04-21T23:10:26.426Z,14.66
2023-04-21T23:12:55.908Z,14.64
2023-04-21T23:15:29.774Z,14.62
2023-04-21T23:18:00.966Z,14.43
2023-04-21T23:20:31.555Z,14.41
2023-04-21T23:23:08.492Z,14.40
2023-04-21T23:25:38.425Z,14.36
2023-04-21T23:28:08.950Z,14.17
2023-04-21T23:30:41.158Z,14.07
2023-04-21T23:33:13.340Z,14.13
2023-04-21T23:35:45.087Z,14.08
2023-04-21T23:38:14.630Z,14.08
2023-04-21T23:40:43.894Z,13.90
2023-04-21T23:43:16.985Z,13.87
2023-04-21T23:45:47.333Z,13.91
2023-04-21T23:48:36.060Z,13.63
2023-04-21T23:51:05.546Z,13.70
2023-04-21T23:53:36.350Z,13.67
2023-04-21T23:56:05.047Z,13.50
2023-04-21T23:58:34.580Z,13.61
